createdAt,value
2018-05-10T00:01:43.777Z,19.59
2018-05-10T00:04:47.090Z,19.28
2018-05-10T00:07:50.861Z,19.21
2018-05-10T00:10:54.215Z,19.28
2018-05-10T00:13:58.592Z,18.96
2018-05-10T00:17:02.026Z,18.91
2018-05-10T00:20:05.372Z,19.14
2018-05-10T00:23:08.718Z,19.36
2018-05-10T00:26:12.128Z,19.45
2018-05-10T00:29:15.500Z,19.54
2018-05-10T00:32:18.669Z,19.66
2018-05-10T00:35:23.346Z,19.74
2018-05-10T00:38:26.715Z,19.80
2018-05-10T00:41:30.052Z,19.91
2018-05-10T00:44:33.427Z,19.91
2018-05-10T00:47:36.740Z,19.89
2018-05-10T00:50:40.108Z,19.84
2018-05-10T00:53:43.410Z,19.65
2018-05-10T00:56:46.809Z,19.32
2018-05-10T00:59:50.492Z,19.00
2018-05-10T01:02:53.866Z,18.63
2018-05-10T01:05:57.230Z,18.61
2018-05-10T01:09:00.907Z,18.55
2018-05-10T01:12:04.793Z,18.45
2018-05-10T01:15:08.098Z,18.30
2018-05-10T01:18:11.418Z,18.26
2018-05-10T01:21:14.748Z,18.33
2018-05-10T01:24:18.161Z,18.44
2018-05-10T01:27:22.524Z,18.46
2018-05-10T01:30:25.923Z,18.45
2018-05-10T01:33:29.296Z,18.35
2018-05-10T01:36:32.518Z,18.27
2018-05-10T01:39:35.850Z,18.08
2018-05-10T01:42:39.253Z,17.96
2018-05-10T01:45:42.553Z,17.91
2018-05-10T01:48:45.742Z,17.86
2018-05-10T01:51:51.704Z,17.83
2018-05-10T01:54:55.029Z,17.82
2018-05-10T01:57:58.468Z,17.77
2018-05-10T02:01:01.800Z,17.81
2018-05-10T02:04:05.096Z,17.81
2018-05-10T02:07:08.405Z,17.72
2018-05-10T02:10:11.837Z,17.69
2018-05-10T02:13:15.167Z,17.70
2018-05-10T02:16:18.491Z,17.66
2018-05-10T02:19:22.609Z,17.54
2018-05-10T02:22:25.924Z,17.52
2018-05-10T02:25:29.292Z,17.41
2018-05-10T02:28:32.719Z,17.52
2018-05-10T02:31:36.020Z,17.39
2018-05-10T02:34:39.680Z,17.15
2018-05-10T02:37:43.063Z,17.16
2018-05-10T02:40:46.480Z,17.06
2018-05-10T02:43:49.869Z,17.06
2018-05-10T02:46:53.869Z,17.08
2018-05-10T02:49:57.284Z,17.00
2018-05-10T02:53:00.604Z,17.05
2018-05-10T02:56:04.083Z,17.08
2018-05-10T02:59:07.447Z,17.17
2018-05-10T03:02:10.788Z,17.13
2018-05-10T03:05:14.123Z,17.10
2018-05-10T03:08:17.457Z,17.22
2018-05-10T03:11:21.231Z,17.25
2018-05-10T03:14:25.563Z,17.25
2018-05-10T03:17:28.808Z,17.25
2018-05-10T03:20:32.166Z,17.26
2018-05-10T03:23:35.451Z,17.19
2018-05-10T03:26:39.781Z,17.11
2018-05-10T03:29:43.096Z,17.09
2018-05-10T03:32:46.428Z,17.18
2018-05-10T03:35:49.929Z,17.27
2018-05-10T03:38:53.221Z,17.33
2018-05-10T03:41:56.448Z,17.39
2018-05-10T03:44:59.852Z,17.43
2018-05-10T03:48:03.038Z,17.45
2018-05-10T03:51:08.380Z,17.48
2018-05-10T03:54:11.719Z,17.51
2018-05-10T03:57:15.003Z,17.54
2018-05-10T04:00:19.453Z,17.60
2018-05-10T04:03:31.668Z,17.61
2018-05-10T04:06:46.360Z,17.60
2018-05-10T04:11:17.920Z,17.58
2018-05-10T04:14:22.253Z,17.59
2018-05-10T04:17:26.583Z,17.58
2018-05-10T04:20:33.487Z,17.51
2018-05-10T04:23:36.897Z,17.43
2018-05-10T04:26:40.202Z,17.40
2018-05-10T04:29:43.559Z,17.45
2018-05-10T04:32:46.859Z,17.43
2018-05-10T04:35:50.904Z,17.51
2018-05-10T04:38:54.227Z,17.57
2018-05-10T04:41:57.596Z,17.56
2018-05-10T04:45:00.959Z,17.60
2018-05-10T04:48:04.449Z,17.56
2018-05-10T04:51:07.738Z,17.56
2018-05-10T04:54:11.043Z,17.55
2018-05-10T04:57:14.395Z,17.50
2018-05-10T05:00:17.674Z,17.53
2018-05-10T05:03:20.955Z,17.47
2018-05-10T05:06:24.396Z,17.43
2018-05-10T05:09:28.146Z,17.44
2018-05-10T05:12:31.488Z,17.45
2018-05-10T05:15:34.866Z,17.39
2018-05-10T05:18:38.240Z,17.44
2018-05-10T05:21:42.620Z,17.40
2018-05-10T05:24:46.890Z,17.46
2018-05-10T05:27:50.341Z,17.39
2018-05-10T05:30:53.730Z,17.43
2018-05-10T05:33:57.089Z,17.37
2018-05-10T05:37:00.732Z,17.32
2018-05-10T05:40:04.095Z,17.34
2018-05-10T05:43:08.465Z,17.35
2018-05-10T05:46:11.804Z,17.38
2018-05-10T05:49:15.134Z,17.46
2018-05-10T05:52:18.364Z,17.55
2018-05-10T05:55:21.770Z,17.63
2018-05-10T05:58:25.166Z,17.60
2018-05-10T06:01:29.645Z,17.44
2018-05-10T06:04:33.049Z,17.50
2018-05-10T06:07:36.304Z,17.56
2018-05-10T06:10:39.663Z,17.59
2018-05-10T06:13:43.074Z,17.62
2018-05-10T06:16:46.497Z,17.67
2018-05-10T06:19:49.835Z,17.66
2018-05-10T06:22:53.247Z,17.66
2018-05-10T06:25:56.624Z,17.54
2018-05-10T06:29:00.281Z,17.59
2018-05-10T06:32:03.677Z,17.49
2018-05-10T06:35:07.029Z,17.52
2018-05-10T06:38:10.356Z,17.65
2018-05-10T06:41:13.736Z,17.74
2018-05-10T06:44:17.226Z,17.86
2018-05-10T06:47:20.592Z,17.79
2018-05-10T06:50:23.924Z,17.88
2018-05-10T06:53:27.944Z,17.85
2018-05-10T06:56:32.292Z,17.87
2018-05-10T06:59:35.831Z,17.89
2018-05-10T07:02:39.319Z,17.91
2018-05-10T07:05:42.595Z,17.84
2018-05-10T07:08:46.047Z,17.78
2018-05-10T07:11:49.413Z,17.80
2018-05-10T07:14:52.811Z,17.90
2018-05-10T07:17:56.174Z,17.92
2018-05-10T07:20:59.580Z,17.97
2018-05-10T07:24:03.152Z,18.03
2018-05-10T07:27:06.582Z,17.96
2018-05-10T07:30:09.958Z,17.91
2018-05-10T07:33:13.351Z,18.03
2018-05-10T07:36:16.835Z,18.11
2018-05-10T07:39:20.183Z,18.12
2018-05-10T07:42:23.519Z,18.03
2018-05-10T07:45:26.809Z,18.10
2018-05-10T07:48:30.731Z,18.00
2018-05-10T07:51:33.966Z,18.04
2018-05-10T07:54:37.241Z,18.09
2018-05-10T07:57:40.715Z,18.00
2018-05-10T08:00:45.041Z,17.92
2018-05-10T08:03:48.282Z,18.04
2018-05-10T08:06:51.649Z,18.17
2018-05-10T08:09:55.221Z,18.42
2018-05-10T08:12:59.139Z,18.50
2018-05-10T08:16:02.499Z,18.58
2018-05-10T08:19:05.901Z,18.57
2018-05-10T08:22:09.294Z,18.61
2018-05-10T08:25:12.800Z,18.68
2018-05-10T08:28:16.140Z,18.71
2018-05-10T08:31:19.568Z,18.75
2018-05-10T08:34:22.943Z,18.73
2018-05-10T08:37:26.115Z,18.72
2018-05-10T08:40:30.187Z,18.70
2018-05-10T08:43:33.532Z,18.83
2018-05-10T08:46:36.994Z,18.89
2018-05-10T08:49:40.336Z,18.90
2018-05-10T08:52:43.759Z,18.88
2018-05-10T08:55:47.163Z,18.76
2018-05-10T08:58:50.568Z,18.81
2018-05-10T09:01:53.915Z,18.78
2018-05-10T09:04:57.466Z,18.79
2018-05-10T09:08:01.971Z,18.86
2018-05-10T09:11:05.571Z,18.98
2018-05-10T09:14:08.804Z,19.13
2018-05-10T09:17:12.000Z,19.13
2018-05-10T09:20:15.487Z,19.01
2018-05-10T09:23:18.816Z,19.04
2018-05-10T09:26:22.213Z,19.06
2018-05-10T09:29:25.490Z,19.01
2018-05-10T09:32:29.512Z,18.80
2018-05-10T09:35:32.688Z,18.78
2018-05-10T09:38:36.113Z,18.69
2018-05-10T09:41:39.928Z,18.61
2018-05-10T09:44:43.228Z,18.35
2018-05-10T09:47:47.485Z,18.32
2018-05-10T09:50:50.907Z,18.09
2018-05-10T09:53:54.331Z,17.60
2018-05-10T09:56:58.045Z,17.46
2018-05-10T10:00:01.457Z,17.53
2018-05-10T10:03:04.750Z,17.62
2018-05-10T10:06:08.088Z,17.63
2018-05-10T10:09:11.438Z,17.72
2018-05-10T10:12:14.739Z,17.61
2018-05-10T10:15:17.961Z,17.73
2018-05-10T10:18:21.283Z,17.62
2018-05-10T10:21:24.517Z,17.67
2018-05-10T10:24:27.750Z,17.71
2018-05-10T10:27:30.971Z,17.81
2018-05-10T10:30:34.259Z,17.67
2018-05-10T10:33:37.603Z,17.81
2018-05-10T10:36:41.751Z,17.67
2018-05-10T10:39:45.795Z,17.62
2018-05-10T10:42:48.980Z,17.51
2018-05-10T10:45:52.349Z,17.50
2018-05-10T10:48:55.817Z,17.55
2018-05-10T10:51:59.112Z,17.69
2018-05-10T10:55:02.347Z,17.73
2018-05-10T10:58:05.727Z,17.63
2018-05-10T11:01:09.119Z,17.61
2018-05-10T11:04:12.366Z,17.66
2018-05-10T11:07:16.080Z,17.50
2018-05-10T11:10:19.407Z,17.52
2018-05-10T11:13:22.844Z,17.54
2018-05-10T11:16:26.224Z,17.52
2018-05-10T11:19:29.599Z,17.28
2018-05-10T11:22:33.083Z,17.41
2018-05-10T11:25:36.399Z,17.54
2018-05-10T11:28:39.824Z,17.46
2018-05-10T11:31:43.582Z,17.40
2018-05-10T11:34:46.905Z,17.43
2018-05-10T11:37:50.580Z,17.56
2018-05-10T11:40:53.901Z,17.61
2018-05-10T11:43:57.386Z,17.66
2018-05-10T11:47:00.729Z,17.61
2018-05-10T11:50:04.173Z,17.54
2018-05-10T11:53:07.459Z,17.49
2018-05-10T11:56:10.817Z,17.45
2018-05-10T11:59:14.012Z,17.34
2018-05-10T12:02:17.318Z,17.31
2018-05-10T12:05:20.721Z,17.38
2018-05-10T12:08:24.405Z,17.39
2018-05-10T12:11:28.822Z,17.22
2018-05-10T12:14:32.942Z,17.13
2018-05-10T12:17:36.345Z,17.14
2018-05-10T12:20:39.744Z,17.29
2018-05-10T12:23:43.223Z,17.23
2018-05-10T12:26:46.622Z,17.26
2018-05-10T12:29:49.822Z,17.13
2018-05-10T12:32:53.168Z,17.12
2018-05-10T12:35:56.510Z,17.01
2018-05-10T12:39:05.097Z,17.03
2018-05-10T12:42:08.588Z,17.08
2018-05-10T12:45:11.910Z,17.19
2018-05-10T12:48:15.276Z,16.98
2018-05-10T12:51:19.548Z,16.89
2018-05-10T12:54:24.900Z,16.94
2018-05-10T12:57:28.281Z,16.96
2018-05-10T13:00:33.088Z,16.87
2018-05-10T13:03:36.533Z,16.97
2018-05-10T13:06:39.875Z,16.96
2018-05-10T13:09:44.204Z,16.98
2018-05-10T13:12:47.591Z,17.07
2018-05-10T13:15:50.884Z,17.05
2018-05-10T13:18:54.214Z,17.20
2018-05-10T13:21:57.599Z,17.11
2018-05-10T13:25:01.003Z,17.22
2018-05-10T13:28:05.478Z,17.20
2018-05-10T13:31:08.868Z,17.25
2018-05-10T13:34:12.331Z,17.24
2018-05-10T13:37:15.612Z,17.12
2018-05-10T13:40:19.106Z,17.09
2018-05-10T13:43:22.475Z,17.04
2018-05-10T13:46:25.812Z,16.88
2018-05-10T13:49:29.028Z,16.94
2018-05-10T13:52:34.510Z,16.89
2018-05-10T13:55:37.863Z,16.94
2018-05-10T13:58:41.267Z,16.94
2018-05-10T14:01:44.580Z,16.99
2018-05-10T14:04:47.983Z,16.99
2018-05-10T14:07:52.349Z,16.90
2018-05-10T14:10:55.643Z,16.70
2018-05-10T14:13:58.966Z,16.58
2018-05-10T14:17:03.478Z,16.31
2018-05-10T14:20:06.839Z,16.10
2018-05-10T14:23:10.341Z,15.58
2018-05-10T14:26:13.591Z,15.45
2018-05-10T14:29:17.022Z,15.37
2018-05-10T14:32:20.426Z,15.18
2018-05-10T14:35:23.792Z,15.04
2018-05-10T14:38:27.229Z,14.94
2018-05-10T14:41:30.607Z,14.95
2018-05-10T14:44:34.907Z,14.96
2018-05-10T14:47:38.342Z,14.71
2018-05-10T14:50:41.630Z,14.76
2018-05-10T14:53:45.077Z,14.65
2018-05-10T14:56:48.441Z,14.60
2018-05-10T14:59:51.726Z,14.59
2018-05-10T15:02:55.107Z,14.57
2018-05-10T15:05:58.392Z,14.64
2018-05-10T15:09:03.130Z,14.67
2018-05-10T15:12:06.580Z,14.62
2018-05-10T15:15:09.938Z,14.63
2018-05-10T15:18:13.178Z,14.62
2018-05-10T15:21:16.557Z,14.60
2018-05-10T15:24:19.865Z,14.57
2018-05-10T15:27:23.432Z,14.62
2018-05-10T15:30:26.832Z,14.63
2018-05-10T15:33:30.068Z,14.60
2018-05-10T15:36:33.960Z,14.62
2018-05-10T15:39:37.309Z,14.56
2018-05-10T15:42:40.501Z,14.59
2018-05-10T15:45:43.805Z,14.63
2018-05-10T15:48:47.284Z,14.83
2018-05-10T15:51:50.870Z,14.94
2018-05-10T15:54:54.175Z,14.87
2018-05-10T15:57:57.856Z,14.83
2018-05-10T16:01:01.244Z,14.77
2018-05-10T16:04:05.249Z,14.78
2018-05-10T16:07:08.671Z,14.70
2018-05-10T16:10:11.969Z,14.68
2018-05-10T16:13:15.424Z,14.67
2018-05-10T16:16:18.847Z,14.58
2018-05-10T16:19:22.179Z,14.56
2018-05-10T16:22:25.614Z,14.46
2018-05-10T16:25:28.980Z,14.63
2018-05-10T16:28:33.990Z,14.65
2018-05-10T16:31:37.722Z,14.59
2018-05-10T16:34:40.976Z,14.67
2018-05-10T16:37:44.295Z,14.70
2018-05-10T16:40:47.766Z,14.73
2018-05-10T16:43:51.107Z,14.65
2018-05-10T16:46:54.444Z,14.51
2018-05-10T16:49:57.834Z,14.45
2018-05-10T16:53:01.270Z,14.41
2018-05-10T16:56:05.855Z,14.39
2018-05-10T16:59:09.231Z,14.42
2018-05-10T17:02:12.644Z,14.40
2018-05-10T17:05:16.040Z,14.38
2018-05-10T17:08:19.393Z,14.36
2018-05-10T17:11:22.699Z,14.43
2018-05-10T17:14:26.059Z,14.52
2018-05-10T17:17:29.415Z,14.61
2018-05-10T17:20:32.751Z,14.61
2018-05-10T17:23:37.256Z,14.60
2018-05-10T17:26:40.561Z,14.68
2018-05-10T17:29:44.140Z,14.67
2018-05-10T17:32:47.452Z,14.65
2018-05-10T17:35:50.703Z,14.65
2018-05-10T17:38:54.188Z,14.77
2018-05-10T17:41:57.579Z,14.86
2018-05-10T17:45:01.145Z,14.86
2018-05-10T17:48:04.901Z,14.94
2018-05-10T17:51:08.179Z,14.88
2018-05-10T17:54:11.622Z,14.85
2018-05-10T17:57:14.968Z,14.79
2018-05-10T18:00:18.250Z,14.85
2018-05-10T18:03:21.480Z,14.96
2018-05-10T18:06:24.760Z,15.07
2018-05-10T18:09:28.138Z,15.01
2018-05-10T18:12:31.532Z,15.00
2018-05-10T18:15:34.860Z,15.05
2018-05-10T18:18:38.116Z,15.10
2018-05-10T18:21:43.513Z,14.94
2018-05-10T18:24:46.838Z,15.00
2018-05-10T18:27:50.259Z,15.05
2018-05-10T18:30:53.729Z,15.05
2018-05-10T18:33:57.112Z,15.06
2018-05-10T18:37:00.618Z,14.90
2018-05-10T18:40:04.036Z,14.85
2018-05-10T18:43:07.437Z,14.94
2018-05-10T18:46:11.275Z,15.00
2018-05-10T18:49:14.624Z,15.00
2018-05-10T18:52:19.091Z,15.07
2018-05-10T18:55:22.694Z,15.11
2018-05-10T18:58:25.977Z,15.17
2018-05-10T19:01:29.319Z,15.14
2018-05-10T19:04:32.539Z,14.93
2018-05-10T19:07:36.857Z,15.00
2018-05-10T19:10:40.309Z,15.04
2018-05-10T19:13:43.651Z,15.08
2018-05-10T19:16:46.874Z,14.94
2018-05-10T19:19:50.277Z,15.04
2018-05-10T19:22:53.654Z,15.08
2018-05-10T19:25:57.701Z,15.07
2018-05-10T19:29:01.219Z,15.05
2018-05-10T19:32:05.111Z,15.12
2018-05-10T19:35:08.491Z,15.17
2018-05-10T19:38:11.867Z,15.09
2018-05-10T19:41:15.238Z,15.03
2018-05-10T19:44:18.653Z,14.94
2018-05-10T19:47:22.057Z,15.01
2018-05-10T19:50:25.735Z,15.01
2018-05-10T19:53:29.080Z,14.95
2018-05-10T19:56:32.554Z,14.94
2018-05-10T19:59:35.884Z,14.97
2018-05-10T20:02:39.354Z,15.06
2018-05-10T20:05:45.845Z,15.05
2018-05-10T20:08:49.329Z,15.06
2018-05-10T20:11:52.653Z,15.00
2018-05-10T20:14:57.728Z,15.03
2018-05-10T20:18:01.069Z,15.05
2018-05-10T20:21:04.374Z,15.04
2018-05-10T20:24:08.790Z,15.04
2018-05-10T20:27:12.156Z,15.09
2018-05-10T20:30:15.453Z,15.09
2018-05-10T20:33:18.765Z,15.02
2018-05-10T20:36:24.209Z,15.01
2018-05-10T20:39:27.557Z,14.97
2018-05-10T20:42:30.896Z,14.96
2018-05-10T20:45:35.723Z,14.94
2018-05-10T20:48:39.213Z,14.97
2018-05-10T20:51:42.619Z,14.96
2018-05-10T20:54:46.224Z,14.87
2018-05-10T20:57:50.654Z,14.84
2018-05-10T21:00:55.070Z,14.87
2018-05-10T21:03:58.292Z,14.87
2018-05-10T21:07:01.790Z,14.80
2018-05-10T21:10:05.362Z,14.87
2018-05-10T21:13:12.177Z,14.78
2018-05-10T21:16:15.527Z,14.80
2018-05-10T21:19:19.041Z,14.85
2018-05-10T21:22:22.308Z,14.91
2018-05-10T21:25:25.753Z,14.93
2018-05-10T21:28:29.118Z,14.95
2018-05-10T21:31:33.610Z,14.93
2018-05-10T21:34:37.053Z,14.95
2018-05-10T21:37:40.352Z,14.96
2018-05-10T21:40:45.757Z,14.89
2018-05-10T21:43:49.122Z,14.85
2018-05-10T21:46:52.529Z,14.87
2018-05-10T21:50:03.943Z,14.85
2018-05-10T21:53:07.264Z,14.81
2018-05-10T21:56:10.545Z,14.79
2018-05-10T21:59:13.901Z,14.79
2018-05-10T22:02:17.661Z,14.77
2018-05-10T22:05:21.020Z,14.66
2018-05-10T22:08:24.424Z,14.62
2018-05-10T22:11:27.813Z,14.60
2018-05-10T22:14:31.218Z,14.58
2018-05-10T22:17:34.812Z,14.48
2018-05-10T22:20:38.562Z,14.44
2018-05-10T22:23:41.952Z,14.39
2018-05-10T22:26:45.340Z,14.30
2018-05-10T22:29:48.496Z,14.28
2018-05-10T22:32:51.964Z,14.28
2018-05-10T22:35:55.438Z,14.26
2018-05-10T22:38:58.816Z,14.19
2018-05-10T22:42:03.822Z,14.11
2018-05-10T22:45:07.481Z,14.10
2018-05-10T22:48:10.965Z,14.09
2018-05-10T22:51:14.388Z,14.00
2018-05-10T22:54:17.818Z,13.94
2018-05-10T22:57:21.222Z,13.92
2018-05-10T23:00:24.585Z,13.92
2018-05-10T23:03:28.071Z,13.95
2018-05-10T23:06:31.522Z,13.97
2018-05-10T23:09:35.958Z,13.88
2018-05-10T23:12:39.316Z,13.82
2018-05-10T23:15:42.735Z,13.78
2018-05-10T23:18:46.106Z,13.75
2018-05-10T23:21:49.505Z,13.76
2018-05-10T23:24:52.871Z,13.73
2018-05-10T23:27:56.329Z,13.79
2018-05-10T23:30:59.717Z,13.84
2018-05-10T23:34:03.603Z,13.85
2018-05-10T23:37:08.997Z,13.83
2018-05-10T23:40:12.314Z,13.79
2018-05-10T23:43:15.644Z,13.74
2018-05-10T23:46:18.955Z,13.70
2018-05-10T23:49:22.484Z,13.69
2018-05-10T23:52:25.978Z,13.62
2018-05-10T23:55:29.232Z,13.65
2018-05-10T23:58:33.599Z,13.68
